Terminal Aerodrome Forecast
Issued by NWS Oklahoma City, OK

Home | Current Version | Previous Version | Text Only | Print | Product List | Glossary On
Versions: 1 2 3 4 5 6 7 8 9 10 11 12 13 14 15 16 17 18 19 20 21 22 23 24 25 26 27 28 29 30 31 32 33 34
218
FTUS44 KOUN 291727
TAFOUN
TAF
KOUN 291727Z 2918/3018 22013KT P6SM BKN005
     FM292000 22013G23KT P6SM BKN012 OVC020
     FM300100 29014KT P6SM BKN020 OVC040
     FM301500 34015KT P6SM SCT030=

USA.gov is the U.S. government's official web portal to all federal, state and local government web resources and services.